Time;durP1;ratioP1;P1;durP2;ratioP2;P2;SDS_P1;SDS_P2;PMS_P1;PMS_P2;Temp;Humidity;BMP_temperature;BMP_pressure;BME280_temperature;BME280_humidity;BME280_pressure;Samples;Min_cycle;Max_cycle;Signal;HPM_P1;HPM_P2
2022/05/26 00:02:18;;;;;;;8.57;8.13;;;15.70;99.90;;;;;;5086067;28;20510;-67
2022/05/26 00:04:46;;;;;;;7.87;7.47;;;15.70;99.90;;;;;;5084113;28;20466;-66
2022/05/26 00:07:14;;;;;;;9.13;8.63;;;15.70;99.90;;;;;;5080580;28;20486;-69
2022/05/26 00:09:42;;;;;;;8.90;8.30;;;15.70;99.90;;;;;;5078416;28;20481;-67
2022/05/26 00:12:11;;;;;;;8.80;8.20;;;15.70;99.90;;;;;;5077722;28;20494;-68
2022/05/26 00:14:38;;;;;;;8.70;8.20;;;15.70;99.90;;;;;;5087910;28;20807;-67
2022/05/26 00:17:06;;;;;;;8.30;7.70;;;15.60;99.90;;;;;;5078701;28;20468;-67
2022/05/26 00:19:34;;;;;;;8.50;8.00;;;15.60;99.90;;;;;;5083488;28;20454;-67
2022/05/26 00:22:00;;;;;;;8.40;7.83;;;15.70;99.90;;;;;;5079515;28;20459;-66
2022/05/26 00:24:28;;;;;;;7.77;7.47;;;15.70;99.90;;;;;;5076891;28;20961;-67
2022/05/26 00:26:55;;;;;;;8.27;7.87;;;15.60;99.90;;;;;;5079569;28;20500;-66
2022/05/26 00:29:23;;;;;;;8.83;8.43;;;15.60;99.90;;;;;;5083420;28;20473;-67
2022/05/26 00:31:51;;;;;;;8.87;8.37;;;15.60;99.90;;;;;;5081776;28;20478;-68
2022/05/26 00:34:18;;;;;;;8.60;8.10;;;15.50;99.90;;;;;;5079080;28;20809;-67
2022/05/26 00:36:45;;;;;;;8.30;7.90;;;15.60;99.90;;;;;;5073922;28;20460;-67
2022/05/26 00:39:15;;;;;;;13.13;8.47;;;15.70;99.90;;;;;;5085407;28;20462;-67
2022/05/26 00:41:44;;;;;;;8.70;8.10;;;15.60;99.90;;;;;;5086258;28;20471;-68
2022/05/26 00:44:12;;;;;;;8.70;8.30;;;15.60;99.90;;;;;;5078343;28;20458;-66
2022/05/26 00:46:47;;;;;;;8.07;7.60;;;15.60;99.90;;;;;;5076191;28;20528;-68
2022/05/26 00:49:21;;;;;;;8.13;7.60;;;15.60;99.90;;;;;;5081649;28;20454;-67
2022/05/26 00:51:48;;;;;;;8.63;8.20;;;15.60;99.90;;;;;;5080480;28;20478;-67
2022/05/26 00:54:19;;;;;;;8.80;8.30;;;15.70;99.90;;;;;;5081479;28;20553;-67
2022/05/26 00:56:52;;;;;;;9.20;8.70;;;15.60;99.90;;;;;;5081080;28;20455;-66
2022/05/26 00:59:24;;;;;;;8.93;7.80;;;15.50;99.90;;;;;;5080033;28;20457;-68
2022/05/26 01:01:54;;;;;;;8.50;8.10;;;15.60;99.90;;;;;;5075851;28;20459;-67
2022/05/26 01:04:25;;;;;;;8.13;7.83;;;15.70;99.90;;;;;;5078756;28;20545;-67
2022/05/26 01:06:56;;;;;;;8.90;8.30;;;15.60;99.90;;;;;;5082885;28;20526;-68
2022/05/26 01:09:23;;;;;;;8.40;7.90;;;15.60;99.90;;;;;;5085478;28;20469;-67
2022/05/26 01:11:50;;;;;;;8.67;8.10;;;15.50;99.90;;;;;;5079162;28;20469;-68
2022/05/26 01:14:20;;;;;;;8.77;8.37;;;15.50;99.90;;;;;;5080897;28;20869;-67
2022/05/26 01:17:01;;;;;;;8.33;7.90;;;15.50;99.90;;;;;;5079643;28;20455;-68
2022/05/26 01:20:03;;;;;;;8.80;8.03;;;15.60;99.90;;;;;;5082098;28;20463;-68
2022/05/26 01:22:40;;;;;;;8.37;7.87;;;15.60;99.90;;;;;;5075002;28;20463;-66
2022/05/26 01:25:53;;;;;;;8.60;8.00;;;15.50;99.90;;;;;;5076299;28;20491;-68
2022/05/26 01:28:32;;;;;;;8.53;8.13;;;15.50;99.90;;;;;;5056064;28;20459;-67
2022/05/26 01:31:15;;;;;;;8.07;7.57;;;15.50;99.90;;;;;;5081096;28;20459;-68
2022/05/26 01:33:51;;;;;;;8.27;7.53;;;15.50;99.90;;;;;;5083794;28;20470;-67
2022/05/26 01:36:25;;;;;;;8.40;7.80;;;15.50;99.90;;;;;;5080864;28;20494;-68
2022/05/26 01:39:04;;;;;;;7.53;7.10;;;15.50;99.90;;;;;;5073400;28;20462;-67
2022/05/26 01:41:48;;;;;;;7.67;7.30;;;15.50;99.90;;;;;;5072785;28;20471;-67
2022/05/26 01:44:24;;;;;;;7.73;7.30;;;15.40;99.90;;;;;;5079293;28;20469;-68
2022/05/26 01:46:59;;;;;;;7.53;7.10;;;15.50;99.90;;;;;;5080885;28;20473;-67
2022/05/26 01:49:34;;;;;;;8.40;7.70;;;15.40;99.90;;;;;;5079576;28;20465;-66
2022/05/26 01:52:06;;;;;;;8.40;7.60;;;15.30;99.90;;;;;;5083383;28;20522;-67
2022/05/26 01:54:42;;;;;;;7.90;7.50;;;15.20;99.90;;;;;;5082184;28;20524;-67
2022/05/26 01:57:14;;;;;;;7.40;7.00;;;15.20;99.90;;;;;;5076791;28;20485;-66
2022/05/26 01:59:46;;;;;;;7.77;7.47;;;15.20;99.90;;;;;;5079608;28;20585;-67
2022/05/26 02:02:19;;;;;;;7.40;7.00;;;15.20;99.90;;;;;;5073434;28;20455;-66
2022/05/26 02:04:50;;;;;;;8.13;7.37;;;15.30;99.90;;;;;;5083518;28;20459;-67
2022/05/26 02:07:25;;;;;;;7.20;6.80;;;15.30;99.90;;;;;;5077367;28;20484;-68
2022/05/26 02:09:54;;;;;;;7.73;7.03;;;15.30;99.90;;;;;;5078902;28;20474;-67
2022/05/26 02:12:26;;;;;;;7.20;6.90;;;15.40;99.90;;;;;;5077985;28;20488;-68
2022/05/26 02:15:00;;;;;;;7.17;6.73;;;15.30;99.90;;;;;;5076159;28;20822;-67
2022/05/26 02:17:31;;;;;;;7.37;6.77;;;15.30;99.90;;;;;;5078307;28;20458;-66
2022/05/26 02:20:04;;;;;;;7.60;7.10;;;15.30;99.90;;;;;;5073752;28;20807;-67
2022/05/26 02:22:34;;;;;;;7.60;7.10;;;15.30;99.90;;;;;;5080594;28;20474;-67
2022/05/26 02:25:04;;;;;;;7.33;6.80;;;15.30;99.90;;;;;;5080764;28;21027;-67
2022/05/26 02:27:32;;;;;;;7.57;7.17;;;15.20;99.90;;;;;;5079984;28;20475;-67
2022/05/26 02:30:01;;;;;;;7.37;6.90;;;15.20;99.90;;;;;;5072655;28;20463;-67
2022/05/26 02:32:35;;;;;;;7.30;6.57;;;15.20;99.90;;;;;;5073301;28;20490;-67
2022/05/26 02:35:06;;;;;;;7.43;6.87;;;15.10;99.90;;;;;;5079340;28;20462;-68
2022/05/26 02:37:35;;;;;;;7.50;7.10;;;15.20;99.90;;;;;;5077937;28;20598;-66
2022/05/26 02:40:02;;;;;;;7.30;6.90;;;15.10;99.90;;;;;;5084919;28;20557;-67
2022/05/26 02:42:29;;;;;;;7.60;7.00;;;15.20;99.90;;;;;;5082222;28;20461;-67
2022/05/26 02:44:57;;;;;;;6.80;6.30;;;15.10;99.90;;;;;;5076902;28;20477;-68
2022/05/26 02:47:45;;;;;;;7.47;7.07;;;15.10;99.90;;;;;;5079419;28;20462;-68
2022/05/26 02:50:36;;;;;;;7.13;6.70;;;15.00;99.90;;;;;;5074961;28;20716;-66
2022/05/26 02:53:10;;;;;;;18.87;7.40;;;15.10;99.90;;;;;;5078990;28;20497;-67
2022/05/26 02:55:50;;;;;;;7.23;6.73;;;15.00;99.90;;;;;;5077515;28;20463;-68
2022/05/26 02:58:25;;;;;;;8.60;7.00;;;15.00;99.90;;;;;;5075223;28;20457;-68
2022/05/26 03:00:59;;;;;;;7.67;7.13;;;14.90;99.90;;;;;;5084131;28;20459;-67
2022/05/26 03:03:33;;;;;;;8.33;7.33;;;14.80;99.90;;;;;;5077261;28;20462;-67
2022/05/26 03:06:05;;;;;;;8.03;7.50;;;14.90;99.90;;;;;;5077271;28;20462;-67
2022/05/26 03:08:37;;;;;;;8.67;7.60;;;14.90;99.90;;;;;;5077207;28;20487;-67
2022/05/26 03:11:08;;;;;;;7.43;6.93;;;15.00;99.90;;;;;;5074304;28;20463;-67
2022/05/26 03:13:34;;;;;;;9.30;7.23;;;14.90;99.90;;;;;;5076367;28;20544;-66
2022/05/26 03:16:01;;;;;;;7.73;7.03;;;14.90;99.90;;;;;;5075541;28;20462;-67
2022/05/26 03:18:30;;;;;;;7.30;6.73;;;14.90;99.90;;;;;;5079803;28;20956;-66
2022/05/26 03:20:59;;;;;;;11.10;7.20;;;14.80;99.90;;;;;;5079593;28;20470;-65
2022/05/26 03:23:26;;;;;;;12.80;7.37;;;14.90;99.90;;;;;;5077748;28;20817;-66
2022/05/26 03:25:57;;;;;;;7.83;7.17;;;14.90;99.90;;;;;;5082032;28;20460;-66
2022/05/26 03:28:24;;;;;;;8.20;7.57;;;15.00;99.90;;;;;;5071242;28;20969;-67
2022/05/26 03:30:51;;;;;;;7.73;7.23;;;15.00;99.90;;;;;;5078178;28;20466;-67
2022/05/26 03:33:18;;;;;;;8.27;7.30;;;14.90;99.90;;;;;;5075592;28;20481;-66
2022/05/26 03:41:21;;;;;;;8.00;7.20;;;14.90;99.90;;;;;;5076400;28;20500;-66
2022/05/26 03:43:52;;;;;;;11.80;7.83;;;14.90;99.90;;;;;;5075922;28;20458;-66
2022/05/26 03:46:19;;;;;;;9.20;7.30;;;15.00;99.90;;;;;;5083055;28;20490;-66
2022/05/26 03:48:46;;;;;;;11.93;7.80;;;14.90;99.90;;;;;;5076047;28;20465;-66
2022/05/26 03:51:14;;;;;;;7.40;6.70;;;14.90;99.90;;;;;;5074136;28;20470;-66
2022/05/26 03:53:42;;;;;;;8.97;7.57;;;14.90;99.90;;;;;;5081376;28;20494;-67
2022/05/26 03:56:10;;;;;;;10.60;8.10;;;14.90;99.90;;;;;;5081602;28;20479;-67
2022/05/26 03:58:36;;;;;;;8.93;7.33;;;14.90;99.90;;;;;;5080348;28;20898;-66
2022/05/26 04:01:04;;;;;;;13.27;8.20;;;14.90;99.90;;;;;;5075296;28;20465;-65
2022/05/26 04:03:32;;;;;;;9.30;7.83;;;14.90;99.90;;;;;;5049524;28;20552;-66
2022/05/26 04:05:59;;;;;;;10.00;8.80;;;14.80;99.90;;;;;;5047418;28;20467;-67
2022/05/26 04:08:27;;;;;;;9.17;8.30;;;14.90;99.90;;;;;;5051999;28;20510;-66
2022/05/26 04:10:54;;;;;;;10.97;8.20;;;14.90;99.90;;;;;;5050867;28;20546;-68
2022/05/26 04:13:21;;;;;;;9.80;8.93;;;14.90;99.90;;;;;;5051051;28;20482;-67
2022/05/26 04:15:48;;;;;;;17.80;8.63;;;15.00;99.90;;;;;;5047827;28;21001;-65
2022/05/26 04:18:15;;;;;;;17.07;9.10;;;15.00;99.90;;;;;;5049814;28;22463;-68
2022/05/26 04:20:42;;;;;;;10.90;8.67;;;15.00;99.90;;;;;;5049117;28;20467;-67
2022/05/26 04:23:08;;;;;;;11.00;8.57;;;15.00;99.90;;;;;;5049432;28;20469;-67
2022/05/26 04:25:37;;;;;;;15.60;9.33;;;15.00;99.90;;;;;;5051449;28;20801;-67
2022/05/26 04:28:04;;;;;;;11.17;9.13;;;15.00;99.90;;;;;;5077272;28;20474;-69
2022/05/26 04:30:31;;;;;;;12.17;9.13;;;15.10;99.90;;;;;;5080027;28;20981;-66
2022/05/26 04:32:58;;;;;;;16.33;8.90;;;15.10;99.90;;;;;;5068587;28;21070;-66
2022/05/26 04:35:26;;;;;;;11.70;8.80;;;15.10;99.90;;;;;;5049682;28;20461;-67
2022/05/26 04:37:53;;;;;;;11.93;9.50;;;15.20;99.90;;;;;;5051378;28;20514;-67
2022/05/26 04:40:20;;;;;;;10.97;9.53;;;15.20;99.90;;;;;;5050194;28;20458;-68
2022/05/26 04:42:49;;;;;;;12.40;9.00;;;15.20;99.90;;;;;;5050827;28;20861;-68
2022/05/26 04:45:16;;;;;;;24.20;9.37;;;15.20;99.90;;;;;;5049864;28;20860;-67
2022/05/26 04:47:43;;;;;;;16.80;9.47;;;15.20;99.90;;;;;;5050208;28;20498;-68
2022/05/26 04:50:11;;;;;;;16.03;9.83;;;15.20;99.90;;;;;;5050296;28;20462;-66
2022/05/26 04:52:38;;;;;;;12.47;9.23;;;15.30;99.90;;;;;;5050912;28;20487;-66
2022/05/26 04:55:07;;;;;;;14.07;9.50;;;15.30;99.90;;;;;;5049438;28;20462;-67
2022/05/26 04:57:34;;;;;;;12.73;9.37;;;15.40;99.90;;;;;;5050259;28;20471;-67
2022/05/26 05:00:04;;;;;;;11.07;8.90;;;15.40;99.90;;;;;;5050678;28;20831;-67
2022/05/26 05:02:31;;;;;;;15.13;9.97;;;15.30;99.90;;;;;;5049025;28;20580;-66
2022/05/26 05:04:57;;;;;;;11.57;8.90;;;15.40;99.90;;;;;;5050459;28;20702;-67
2022/05/26 05:07:24;;;;;;;10.03;8.83;;;15.50;99.90;;;;;;5049161;28;20481;-67
2022/05/26 05:09:51;;;;;;;10.40;9.33;;;15.50;99.90;;;;;;5050873;28;20971;-67
2022/05/26 05:12:19;;;;;;;9.87;9.03;;;15.50;99.90;;;;;;5060737;28;20447;-67
2022/05/26 05:14:48;;;;;;;16.53;10.50;;;15.50;99.90;;;;;;5075208;28;20490;-66
2022/05/26 05:17:18;;;;;;;17.73;11.13;;;15.60;99.90;;;;;;5082082;28;20462;-66
2022/05/26 05:19:45;;;;;;;11.20;9.77;;;15.40;99.90;;;;;;5054088;28;20463;-68
2022/05/26 05:22:18;;;;;;;10.40;9.40;;;15.40;99.90;;;;;;5046419;28;20462;-67
2022/05/26 05:24:49;;;;;;;14.17;9.50;;;15.40;99.90;;;;;;5049824;28;20462;-66
2022/05/26 05:27:19;;;;;;;14.73;10.20;;;15.50;99.90;;;;;;5046370;28;20459;-68
2022/05/26 05:29:49;;;;;;;13.07;10.20;;;15.50;99.90;;;;;;5049003;28;20447;-67
2022/05/26 05:32:20;;;;;;;12.73;11.17;;;15.50;99.90;;;;;;5049155;28;20463;-67
2022/05/26 05:34:49;;;;;;;12.17;10.90;;;15.50;99.90;;;;;;5049134;28;20835;-66
2022/05/26 05:37:16;;;;;;;12.33;11.03;;;15.60;99.90;;;;;;5049105;28;20471;-68
2022/05/26 05:39:43;;;;;;;17.03;10.93;;;15.70;99.90;;;;;;5050186;28;20462;-67
2022/05/26 05:42:10;;;;;;;13.60;10.50;;;15.60;99.90;;;;;;5048475;28;20471;-66
2022/05/26 05:44:38;;;;;;;21.47;11.90;;;15.70;99.90;;;;;;5048782;28;20491;-65
2022/05/26 05:47:06;;;;;;;12.63;10.00;;;15.80;99.90;;;;;;5049240;28;20532;-66
2022/05/26 05:49:35;;;;;;;12.23;10.97;;;16.00;99.90;;;;;;5049510;28;21337;-67
2022/05/26 05:52:07;;;;;;;19.20;13.03;;;16.10;99.90;;;;;;5048612;28;20520;-66
2022/05/26 05:54:34;;;;;;;16.10;10.70;;;16.20;99.90;;;;;;5049148;28;21099;-67
2022/05/26 05:57:01;;;;;;;16.53;11.93;;;16.30;99.90;;;;;;5049684;28;20482;-66
2022/05/26 05:59:28;;;;;;;13.47;12.00;;;16.40;99.90;;;;;;5048800;28;20459;-66
2022/05/26 06:01:55;;;;;;;13.73;11.80;;;16.50;99.90;;;;;;5045023;28;20461;-67
2022/05/26 06:04:22;;;;;;;14.70;12.40;;;16.60;99.90;;;;;;5048302;28;20577;-67
2022/05/26 06:06:51;;;;;;;23.13;13.00;;;16.50;99.90;;;;;;5048365;28;20495;-66
2022/05/26 06:09:18;;;;;;;14.77;13.00;;;16.60;99.90;;;;;;5047381;28;20994;-68
2022/05/26 06:11:46;;;;;;;17.63;12.20;;;16.80;99.90;;;;;;5046647;28;20464;-66
2022/05/26 06:14:13;;;;;;;14.13;12.80;;;16.90;99.90;;;;;;5047382;28;20482;-67
2022/05/26 06:16:40;;;;;;;18.50;12.77;;;16.90;99.90;;;;;;5047898;28;20560;-67
2022/05/26 06:19:06;;;;;;;17.07;11.93;;;17.10;99.90;;;;;;5046461;28;20685;-67
2022/05/26 06:21:37;;;;;;;14.20;12.83;;;17.20;99.90;;;;;;5046777;28;20473;-66
2022/05/26 06:24:07;;;;;;;15.77;13.90;;;17.20;99.90;;;;;;5048119;28;21171;-67
2022/05/26 06:26:34;;;;;;;16.33;14.03;;;17.10;99.90;;;;;;5047943;28;20607;-66
2022/05/26 06:37:13;;;;;;;14.00;12.80;;;17.20;99.90;;;;;;5046835;28;21119;-67
2022/05/26 06:37:32;;;;;;;14.37;12.30;;;17.60;99.90;;;;;;4984819;28;20477;-67
2022/05/26 06:40:00;;;;;;;14.03;12.80;;;17.90;99.90;;;;;;4985786;28;20472;-66
2022/05/26 06:42:27;;;;;;;17.20;13.00;;;17.90;99.90;;;;;;5011313;28;20446;-67
2022/05/26 06:44:54;;;;;;;16.00;14.40;;;17.90;99.90;;;;;;5047229;28;20483;-67
2022/05/26 06:47:23;;;;;;;15.23;13.60;;;17.80;99.90;;;;;;5046538;28;20465;-68
2022/05/26 06:49:50;;;;;;;18.93;15.17;;;17.60;99.90;;;;;;5046671;28;20458;-66
2022/05/26 06:52:22;;;;;;;14.40;13.00;;;17.60;99.90;;;;;;5047283;28;20475;-66
2022/05/26 06:54:49;;;;;;;15.40;14.00;;;17.50;99.90;;;;;;5047381;28;21005;-66
2022/05/26 06:57:18;;;;;;;19.30;14.20;;;17.70;99.90;;;;;;5047471;28;21330;-67
2022/05/26 06:59:45;;;;;;;15.50;13.93;;;17.80;99.90;;;;;;5046820;28;20883;-67
2022/05/26 07:02:14;;;;;;;15.43;13.40;;;17.90;99.90;;;;;;5046833;28;20466;-67
2022/05/26 07:04:42;;;;;;;15.10;13.80;;;18.00;99.90;;;;;;5047350;28;20463;-67
2022/05/26 07:07:12;;;;;;;15.77;14.30;;;18.20;99.90;;;;;;5046594;28;20487;-66
2022/05/26 07:09:39;;;;;;;16.07;14.43;;;17.80;99.90;;;;;;5047183;28;20465;-67
2022/05/26 07:12:06;;;;;;;16.60;14.13;;;17.90;99.90;;;;;;5046264;28;20484;-67
2022/05/26 07:14:34;;;;;;;14.83;13.43;;;18.00;99.90;;;;;;5046313;28;20497;-67
2022/05/26 07:17:01;;;;;;;15.50;13.87;;;18.20;99.90;;;;;;5047047;28;20743;-67
2022/05/26 07:19:28;;;;;;;17.47;13.87;;;18.30;99.90;;;;;;5047026;28;20843;-67
2022/05/26 07:21:55;;;;;;;15.40;13.80;;;18.30;99.90;;;;;;5046320;28;20467;-66
2022/05/26 07:24:24;;;;;;;14.57;13.33;;;18.20;99.90;;;;;;5070268;28;20457;-67
2022/05/26 07:26:53;;;;;;;13.93;12.80;;;18.20;99.90;;;;;;5075958;28;20465;-66
2022/05/26 07:29:21;;;;;;;15.37;13.80;;;18.30;99.90;;;;;;5073811;28;20458;-66
2022/05/26 07:31:49;;;;;;;14.57;13.30;;;18.40;99.90;;;;;;5049900;28;20474;-68
2022/05/26 07:34:16;;;;;;;16.80;13.00;;;18.50;99.90;;;;;;5046750;28;20859;-66
2022/05/26 07:42:15;;;;;;;17.10;13.97;;;18.40;99.90;;;;;;5048148;28;20561;-66
2022/05/26 07:44:44;;;;;;;14.60;13.33;;;18.30;99.90;;;;;;5049447;28;20486;-67
2022/05/26 07:47:13;;;;;;;18.43;13.30;;;18.40;99.90;;;;;;5049800;28;20459;-67
2022/05/26 07:49:41;;;;;;;14.20;12.97;;;18.60;99.90;;;;;;5050550;28;20590;-67
2022/05/26 07:52:09;;;;;;;21.27;13.50;;;18.40;99.90;;;;;;5049844;28;20463;-66
2022/05/26 07:54:37;;;;;;;15.00;13.70;;;18.20;99.90;;;;;;5050557;28;20592;-66
2022/05/26 07:57:06;;;;;;;27.93;13.83;;;17.90;99.90;;;;;;5050253;28;21455;-67
2022/05/26 07:59:34;;;;;;;13.73;12.43;;;18.10;99.90;;;;;;5048915;28;20502;-69
2022/05/26 08:02:00;;;;;;;17.90;13.20;;;18.30;99.90;;;;;;5047216;28;20579;-69
2022/05/26 08:04:29;;;;;;;17.37;13.00;;;18.30;99.90;;;;;;5049512;28;20481;-68
2022/05/26 08:06:56;;;;;;;14.80;13.60;;;18.60;99.90;;;;;;5049827;28;20486;-67
2022/05/26 08:09:23;;;;;;;14.70;13.37;;;18.60;99.90;;;;;;5048907;28;20855;-68
2022/05/26 08:11:50;;;;;;;16.37;13.70;;;18.40;99.90;;;;;;5049035;28;22375;-67
2022/05/26 08:14:17;;;;;;;21.63;13.77;;;18.40;99.90;;;;;;5048958;28;20505;-68
2022/05/26 08:16:45;;;;;;;14.27;13.03;;;18.60;99.90;;;;;;5048146;28;20466;-68
2022/05/26 08:19:11;;;;;;;16.97;15.20;;;18.70;99.90;;;;;;5049496;28;20558;-68
2022/05/26 08:21:40;;;;;;;15.10;13.60;;;18.80;99.90;;;;;;5048862;28;20457;-67
2022/05/26 08:24:07;;;;;;;22.73;13.80;;;19.00;99.90;;;;;;5049738;28;20517;-67
2022/05/26 08:26:34;;;;;;;14.90;13.47;;;18.90;99.90;;;;;;5049138;28;20901;-67
2022/05/26 08:29:01;;;;;;;15.83;14.23;;;19.10;99.90;;;;;;5050012;28;20455;-68
2022/05/26 08:31:28;;;;;;;14.30;13.20;;;19.60;99.90;;;;;;5049206;28;20463;-67
2022/05/26 08:33:55;;;;;;;15.30;13.83;;;20.00;99.90;;;;;;5048989;28;20932;-68
2022/05/26 08:36:25;;;;;;;15.30;13.77;;;20.30;99.90;;;;;;5049188;28;20951;-67
2022/05/26 08:38:55;;;;;;;15.40;14.03;;;20.80;99.90;;;;;;5049300;28;20455;-68
2022/05/26 08:41:24;;;;;;;15.03;13.63;;;20.70;99.90;;;;;;5048137;28;20471;-68
2022/05/26 08:43:57;;;;;;;19.60;13.57;;;20.40;99.90;;;;;;5048730;28;21126;-68
2022/05/26 08:46:32;;;;;;;16.07;14.40;;;20.40;99.90;;;;;;5048363;28;20544;-66
2022/05/26 08:49:08;;;;;;;22.20;14.40;;;20.30;99.90;;;;;;5047063;28;20466;-67
2022/05/26 08:51:44;;;;;;;15.07;13.87;;;19.80;99.90;;;;;;5047738;28;20477;-67
2022/05/26 08:54:22;;;;;;;15.67;14.33;;;19.30;99.90;;;;;;5050790;28;21251;-68
2022/05/26 08:56:50;;;;;;;15.57;14.10;;;19.40;99.90;;;;;;5055035;28;20485;-67
2022/05/26 08:59:19;;;;;;;14.87;13.50;;;20.40;99.90;;;;;;5069118;28;20836;-67
2022/05/26 09:01:45;;;;;;;15.60;14.20;;;21.20;99.90;;;;;;5074406;28;20477;-67
2022/05/26 09:04:12;;;;;;;14.80;13.70;;;21.70;99.90;;;;;;5050805;28;21084;-67
2022/05/26 09:15:02;;;;;;;15.60;14.30;;;20.80;99.90;;;;;;5045156;28;20551;-71
2022/05/26 09:17:30;;;;;;;14.63;13.60;;;21.30;99.90;;;;;;5044308;28;20469;-70
2022/05/26 09:19:58;;;;;;;15.60;14.03;;;21.40;99.90;;;;;;5044472;28;20893;-68
2022/05/26 09:22:28;;;;;;;16.07;14.50;;;21.80;99.90;;;;;;5043426;28;20517;-68
2022/05/26 09:24:56;;;;;;;16.10;13.43;;;21.90;99.90;;;;;;5042330;28;20849;-68
2022/05/26 09:27:28;;;;;;;17.63;14.60;;;21.60;99.90;;;;;;5043966;28;21313;-68
2022/05/26 09:29:55;;;;;;;15.50;13.90;;;22.00;99.90;;;;;;5043922;28;20465;-68
2022/05/26 09:32:31;;;;;;;16.33;14.70;;;21.50;99.90;;;;;;5042360;28;20467;-68
2022/05/26 09:35:09;;;;;;;14.63;13.67;;;21.40;99.90;;;;;;5042952;28;21686;-69
2022/05/26 09:37:41;;;;;;;15.50;14.40;;;20.70;99.90;;;;;;5041191;28;20473;-69
2022/05/26 09:40:21;;;;;;;14.10;13.00;;;21.20;99.90;;;;;;5038944;28;20462;-70
2022/05/26 09:42:52;;;;;;;14.47;13.10;;;21.10;99.90;;;;;;5039943;28;20549;-69
2022/05/26 09:45:20;;;;;;;15.93;14.07;;;20.40;99.90;;;;;;5046993;28;20494;-69
2022/05/26 09:47:53;;;;;;;14.50;13.53;;;21.00;99.90;;;;;;5053494;28;20566;-69
2022/05/26 09:50:40;;;;;;;15.83;14.40;;;22.00;99.90;;;;;;5043106;28;20509;-68
2022/05/26 09:53:09;;;;;;;14.97;13.60;;;22.80;99.90;;;;;;5040848;28;21115;-69
2022/05/26 09:55:45;;;;;;;15.27;13.90;;;23.10;99.90;;;;;;5039422;28;20497;-69
2022/05/26 09:58:14;;;;;;;16.33;14.60;;;22.60;99.90;;;;;;5042985;28;20463;-68
2022/05/26 10:00:43;;;;;;;14.93;13.73;;;21.40;99.90;;;;;;5040211;28;20603;-69
2022/05/26 10:03:21;;;;;;;17.00;13.70;;;21.10;99.90;;;;;;5042232;28;20495;-70
2022/05/26 10:06:01;;;;;;;14.47;13.37;;;21.00;99.90;;;;;;5049117;28;20461;-68
2022/05/26 10:08:35;;;;;;;14.60;13.30;;;21.90;99.90;;;;;;5040680;28;20490;-69
2022/05/26 10:11:09;;;;;;;14.13;13.23;;;22.40;99.90;;;;;;5042690;28;20872;-69
2022/05/26 10:13:50;;;;;;;14.50;13.33;;;22.60;99.90;;;;;;5054867;28;20728;-69
2022/05/26 10:16:25;;;;;;;14.87;13.43;;;22.20;99.90;;;;;;5065573;28;20455;-69
2022/05/26 10:19:08;;;;;;;15.20;14.00;;;22.20;99.90;;;;;;5073279;28;20462;-69
2022/05/26 10:21:48;;;;;;;14.33;13.23;;;23.00;99.90;;;;;;5057847;28;20724;-69
2022/05/26 10:24:30;;;;;;;15.63;14.57;;;23.30;99.90;;;;;;5068821;28;20572;-69
2022/05/26 10:27:11;;;;;;;15.57;14.30;;;23.90;99.90;;;;;;5040651;28;20455;-68
2022/05/26 10:29:51;;;;;;;16.40;14.00;;;23.20;99.90;;;;;;5038989;28;20463;-69
2022/05/26 10:32:26;;;;;;;13.83;12.80;;;22.30;99.90;;;;;;5040530;28;21119;-69
2022/05/26 10:35:10;;;;;;;14.37;13.53;;;21.80;99.90;;;;;;5038299;28;20932;-70
2022/05/26 10:37:58;;;;;;;14.80;13.37;;;21.60;99.90;;;;;;5037471;28;20494;-70
2022/05/26 10:40:31;;;;;;;14.33;13.27;;;21.70;99.90;;;;;;5042451;28;20461;-69
2022/05/26 10:43:05;;;;;;;14.20;13.30;;;22.00;99.90;;;;;;5037536;28;20458;-70
2022/05/26 10:45:37;;;;;;;13.80;12.60;;;22.00;99.90;;;;;;5039034;28;20771;-70
2022/05/26 10:48:09;;;;;;;14.23;13.30;;;22.30;99.90;;;;;;5066808;28;20562;-68
2022/05/26 10:50:39;;;;;;;14.40;13.30;;;22.70;99.90;;;;;;5064277;28;20467;-69
2022/05/26 10:53:14;;;;;;;14.83;13.60;;;22.50;99.90;;;;;;5047552;28;20469;-70
2022/05/26 10:55:49;;;;;;;14.07;13.10;;;22.10;99.90;;;;;;5041261;28;20528;-69
2022/05/26 10:58:23;;;;;;;14.83;13.63;;;21.50;99.90;;;;;;5040679;28;20461;-69
2022/05/26 11:00:54;;;;;;;14.23;13.30;;;21.30;99.90;;;;;;5041024;28;20480;-69
2022/05/26 11:03:25;;;;;;;13.90;12.90;;;22.50;99.90;;;;;;5039494;28;20839;-69
2022/05/26 11:05:58;;;;;;;13.90;13.10;;;23.60;99.90;;;;;;5041596;28;21045;-69
2022/05/26 11:08:38;;;;;;;13.57;12.80;;;23.50;99.90;;;;;;5041571;28;23033;-70
2022/05/26 11:11:12;;;;;;;14.20;13.23;;;22.90;99.90;;;;;;5041503;28;21204;-70
2022/05/26 11:13:48;;;;;;;13.57;12.70;;;22.20;99.90;;;;;;5041567;28;20454;-70
2022/05/26 11:19:34;;;;;;;14.53;13.37;;;21.50;99.90;;;;;;5045551;28;20465;-69
2022/05/26 11:22:04;;;;;;;14.47;13.37;;;20.90;99.90;;;;;;5045273;28;20869;-69
2022/05/26 11:24:32;;;;;;;13.20;12.30;;;20.90;99.90;;;;;;5044598;28;20466;-69
2022/05/26 11:27:06;;;;;;;13.20;12.53;;;21.30;99.90;;;;;;5045869;28;20463;-69
2022/05/26 11:29:39;;;;;;;14.07;13.27;;;22.40;99.90;;;;;;5046099;28;21254;-69
2022/05/26 11:37:59;;;;;;;14.10;13.00;;;21.80;99.90;;;;;;5045928;28;20552;-68
2022/05/26 11:40:32;;;;;;;14.80;13.43;;;21.40;99.90;;;;;;5045511;28;20474;-69
2022/05/26 11:42:59;;;;;;;13.50;12.60;;;21.40;99.90;;;;;;5044338;28;20467;-69
2022/05/26 11:45:30;;;;;;;14.97;13.80;;;22.10;99.90;;;;;;5044975;28;20490;-69
2022/05/26 11:48:00;;;;;;;16.07;14.10;;;23.60;99.90;;;;;;5045009;28;20454;-70
2022/05/26 11:50:31;;;;;;;15.10;13.60;;;23.70;99.90;;;;;;5045793;28;20867;-70
2022/05/26 11:53:08;;;;;;;14.20;13.20;;;23.20;99.90;;;;;;5044875;28;20650;-69
2022/05/26 11:55:48;;;;;;;13.70;12.80;;;22.70;99.90;;;;;;5046289;28;21194;-69
2022/05/26 11:58:29;;;;;;;18.20;13.40;;;22.40;99.90;;;;;;5046457;28;20461;-69
2022/05/26 12:01:35;;;;;;;13.33;12.33;;;22.10;99.90;;;;;;5044672;28;20466;-69
2022/05/26 12:04:27;;;;;;;13.60;12.83;;;21.90;99.90;;;;;;5035519;28;20451;-70
2022/05/26 12:06:58;;;;;;;13.97;13.00;;;22.40;99.90;;;;;;5041513;28;20953;-69
2022/05/26 12:09:36;;;;;;;14.27;13.27;;;22.60;99.90;;;;;;5046155;28;20461;-69
2022/05/26 12:12:07;;;;;;;13.43;12.47;;;22.90;99.90;;;;;;5044785;28;20520;-70
2022/05/26 12:14:38;;;;;;;13.23;12.40;;;23.10;99.90;;;;;;5044447;28;20458;-70
2022/05/26 12:17:32;;;;;;;14.13;13.10;;;23.90;99.70;;;;;;5045029;28;20841;-69
2022/05/26 12:20:03;;;;;;;14.33;13.23;;;24.10;99.40;;;;;;5045391;28;20520;-68
2022/05/26 12:22:32;;;;;;;14.47;13.40;;;23.50;99.90;;;;;;5044094;28;20557;-69
2022/05/26 12:25:15;;;;;;;13.43;12.63;;;23.00;99.90;;;;;;5044894;28;20482;-69
2022/05/26 12:28:00;;;;;;;13.77;12.40;;;22.40;99.90;;;;;;5044393;28;20852;-70
2022/05/26 12:30:48;;;;;;;13.93;12.87;;;22.40;99.90;;;;;;5044118;28;20462;-68
2022/05/26 12:33:37;;;;;;;14.17;13.27;;;22.30;99.90;;;;;;5043288;28;20834;-70
2022/05/26 12:36:12;;;;;;;13.30;12.23;;;22.30;99.90;;;;;;5044729;28;20846;-69
2022/05/26 12:38:51;;;;;;;13.80;12.70;;;23.00;99.90;;;;;;5044386;28;21066;-70
2022/05/26 12:41:23;;;;;;;13.00;12.40;;;24.50;99.90;;;;;;5043366;28;20470;-68
2022/05/26 12:44:06;;;;;;;15.17;13.80;;;25.70;97.80;;;;;;5042551;28;20494;-69
2022/05/26 12:46:45;;;;;;;13.30;12.60;;;25.20;94.80;;;;;;5043680;28;20469;-68
2022/05/26 12:49:36;;;;;;;13.50;12.63;;;24.30;96.50;;;;;;5071773;28;20549;-67
2022/05/26 12:52:13;;;;;;;14.67;13.57;;;24.20;95.60;;;;;;5065233;28;20612;-67
2022/05/26 12:54:48;;;;;;;15.00;13.80;;;24.30;95.20;;;;;;5043401;28;20994;-68
2022/05/26 12:57:22;;;;;;;14.87;13.40;;;24.00;95.30;;;;;;5043472;28;20497;-68
2022/05/26 12:59:48;;;;;;;13.07;12.30;;;24.30;97.00;;;;;;5044672;28;20463;-68
2022/05/26 13:02:16;;;;;;;13.77;12.70;;;24.20;95.10;;;;;;5043123;28;20856;-68
2022/05/26 13:04:47;;;;;;;12.57;11.90;;;24.20;97.00;;;;;;5043444;28;20463;-69
2022/05/26 13:07:16;;;;;;;13.03;12.13;;;24.10;95.90;;;;;;5042932;28;21021;-68
2022/05/26 13:09:45;;;;;;;13.37;12.47;;;24.70;96.50;;;;;;5044069;28;20466;-68
2022/05/26 13:12:20;;;;;;;13.20;12.43;;;25.30;95.60;;;;;;5043288;28;20463;-68
2022/05/26 13:14:50;;;;;;;12.80;11.93;;;25.50;92.90;;;;;;5043153;28;20456;-69
2022/05/26 13:17:19;;;;;;;13.83;13.03;;;24.40;93.70;;;;;;5042580;28;20458;-68
2022/05/26 13:19:49;;;;;;;13.53;12.50;;;25.00;92.60;;;;;;5043695;28;20469;-68
2022/05/26 13:22:18;;;;;;;12.80;12.10;;;25.00;93.10;;;;;;5044072;28;20467;-69
2022/05/26 13:24:56;;;;;;;13.07;12.27;;;24.40;93.10;;;;;;5043399;28;20462;-68
2022/05/26 13:27:23;;;;;;;14.17;13.30;;;24.50;92.80;;;;;;5042679;28;20476;-68
2022/05/26 13:29:52;;;;;;;13.23;12.23;;;24.80;92.90;;;;;;5044054;28;20470;-68